Time;durP1;ratioP1;P1;durP2;ratioP2;P2;SDS_P1;SDS_P2;PMS_P1;PMS_P2;Temp;Humidity;BMP_temperature;BMP_pressure;BME280_temperature;BME280_humidity;BME280_pressure;Samples;Min_cycle;Max_cycle;Signal;HPM_P1;HPM_P2
2022/08/03 00:00:31;;;;;;;3.60;2.28;;;;;;;19.41;62.50;100140.78;7389307;19;20360;-48
2022/08/03 00:03:07;;;;;;;3.65;1.88;;;;;;;19.36;62.63;100138.41;7394180;19;20464;-48
2022/08/03 00:05:35;;;;;;;4.45;1.58;;;;;;;19.38;62.46;100136.00;7394244;19;20014;-48
2022/08/03 00:08:03;;;;;;;2.88;1.23;;;;;;;19.35;62.24;100125.59;7391090;19;20044;-48
2022/08/03 00:10:40;;;;;;;6.22;1.90;;;;;;;19.21;61.96;100129.38;7391107;19;20029;-50
2022/08/03 00:13:08;;;;;;;2.30;1.73;;;;;;;19.11;61.84;100123.88;7401567;19;20010;-50
2022/08/03 00:15:54;;;;;;;4.32;1.52;;;;;;;19.04;61.47;100121.13;7398954;19;20041;-47
2022/08/03 00:18:42;;;;;;;4.88;1.75;;;;;;;19.05;61.74;100122.72;7402590;19;20073;-49
2022/08/03 00:25:04;;;;;;;4.10;1.60;;;;;;;19.06;61.14;100119.50;7402584;19;20011;-49
2022/08/03 00:34:38;;;;;;;6.38;1.95;;;;;;;18.93;62.10;100109.25;7402989;19;20380;-53
2022/08/03 00:37:26;;;;;;;4.95;1.63;;;;;;;18.90;62.14;100107.28;7398139;19;20015;-49
2022/08/03 00:40:28;;;;;;;2.97;1.60;;;;;;;18.82;62.56;100098.91;7396905;19;20006;-48
2022/08/03 00:46:37;;;;;;;5.32;1.70;;;;;;;18.88;62.06;100101.28;7398784;19;20371;-49
2022/08/03 00:49:04;;;;;;;3.08;1.67;;;;;;;18.87;61.84;100094.09;7401861;19;20018;-51
2022/08/03 00:51:42;;;;;;;3.47;1.80;;;;;;;18.87;62.08;100096.88;7395559;19;20014;-53
2022/08/03 00:54:10;;;;;;;3.25;1.63;;;;;;;18.88;62.21;100104.09;7399397;19;20054;-48
2022/08/03 00:56:42;;;;;;;3.03;1.45;;;;;;;18.88;61.81;100102.06;7397152;19;20321;-49
2022/08/03 00:59:27;;;;;;;5.50;1.40;;;;;;;18.81;62.04;100100.16;7398296;19;20013;-53
2022/08/03 01:05:14;;;;;;;3.22;1.67;;;;;;;18.89;62.51;100100.06;7399384;19;20465;-49
2022/08/03 01:07:56;;;;;;;5.55;1.98;;;;;;;18.88;62.27;100092.88;7395734;19;20014;-50
2022/08/03 01:10:41;;;;;;;10.05;2.30;;;;;;;18.84;62.57;100102.13;7396997;19;20018;-49
2022/08/03 01:13:34;;;;;;;5.15;1.65;;;;;;;18.83;62.89;100086.50;7396837;19;20047;-51
2022/08/03 01:16:36;;;;;;;4.32;1.80;;;;;;;18.81;62.83;100097.34;7397487;19;20351;-49
2022/08/03 01:19:12;;;;;;;;;;;;;;;18.77;62.97;100096.56;7397816;19;20011;-50
2022/08/03 01:21:52;;;;;;;5.97;1.75;;;;;;;18.73;63.15;100101.44;7397040;19;19925;-52
2022/08/03 01:24:47;;;;;;;5.75;1.42;;;;;;;18.68;63.32;100099.09;7396930;19;20014;-49
2022/08/03 01:27:22;;;;;;;6.45;2.00;;;;;;;18.71;63.42;100098.25;7398466;19;20484;-51
2022/08/03 01:33:39;;;;;;;5.32;1.92;;;;;;;18.68;63.77;100099.09;7393887;19;20472;-51
2022/08/03 01:36:12;;;;;;;3.72;1.40;;;;;;;18.72;63.83;100090.63;7395587;19;20476;-54
2022/08/03 01:39:08;;;;;;;2.97;1.50;;;;;;;18.72;63.74;100093.41;7387364;19;20358;-49
2022/08/03 01:41:58;;;;;;;7.35;1.88;;;;;;;18.69;64.26;100097.84;7387980;19;20037;-49
2022/08/03 01:44:31;;;;;;;2.50;1.63;;;;;;;18.68;64.19;100099.09;7383333;19;20337;-48
2022/08/03 01:47:02;;;;;;;3.60;1.67;;;;;;;18.68;63.90;100087.88;7392125;19;20387;-48
2022/08/03 01:49:34;;;;;;;4.28;1.52;;;;;;;18.61;64.31;100081.53;7394922;19;20010;-50
2022/08/03 01:52:03;;;;;;;5.00;1.63;;;;;;;18.58;64.27;100080.38;7394557;19;20014;-54
2022/08/03 01:54:35;;;;;;;6.45;2.30;;;;;;;18.50;64.18;100087.25;7395494;19;20028;-48
2022/08/03 01:57:03;;;;;;;7.60;1.52;;;;;;;18.45;64.02;100090.47;7395398;19;20011;-54
2022/08/03 01:59:36;;;;;;;7.25;2.42;;;;;;;18.40;64.39;100088.09;7392936;19;20019;-58
2022/08/03 02:02:06;;;;;;;3.92;1.63;;;;;;;18.33;64.71;100092.97;7398308;19;20017;-52
2022/08/03 02:04:56;;;;;;;3.42;1.50;;;;;;;18.34;64.75;100095.38;7396609;19;20018;-51
2022/08/03 02:10:46;;;;;;;4.68;2.15;;;;;;;18.31;65.10;100089.78;7391098;19;20472;-49
2022/08/03 02:13:15;;;;;;;4.18;1.50;;;;;;;18.34;64.89;100095.38;7396077;19;20018;-49
2022/08/03 02:15:43;;;;;;;10.02;2.13;;;;;;;18.37;65.02;100100.16;7393809;19;20051;-50
2022/08/03 02:18:12;;;;;;;4.97;2.22;;;;;;;18.34;65.23;100095.38;7399009;19;20010;-49
2022/08/03 02:20:41;;;;;;;4.70;1.48;;;;;;;18.30;65.17;100100.19;7389160;19;20018;-50
2022/08/03 02:23:09;;;;;;;3.22;1.58;;;;;;;18.30;65.44;100094.59;7395405;19;20006;-48
2022/08/03 02:25:43;;;;;;;7.45;2.63;;;;;;;18.29;65.15;100104.22;7394964;19;20043;-51
2022/08/03 02:28:16;;;;;;;6.00;1.48;;;;;;;18.28;65.38;100102.63;7395478;19;20475;-48
2022/08/03 02:42:01;;;;;;;7.80;1.70;;;;;;;18.29;65.56;100117.44;7397691;19;20456;-50
2022/08/03 02:48:03;;;;;;;4.22;1.90;;;;;;;18.27;65.94;100129.84;7395423;19;20010;-52
2022/08/03 03:04:30;;;;;;;5.20;1.40;;;;;;;17.99;66.09;100101.22;7396078;19;20019;-49
2022/08/03 03:07:12;;;;;;;6.35;1.58;;;;;;;17.90;67.03;100109.28;7392917;19;20015;-48
2022/08/03 03:09:56;;;;;;;;;;;;;;;17.82;67.13;100113.38;7395613;19;20014;-49
2022/08/03 03:12:26;;;;;;;2.22;1.17;;;;;;;17.80;66.58;100116.56;7396216;19;19925;-49
2022/08/03 03:14:54;;;;;;;2.10;1.05;;;;;;;17.75;66.79;100113.38;7395272;19;20043;-52
2022/08/03 03:24:23;;;;;;;6.10;1.73;;;;;;;17.62;67.27;100116.66;7388140;19;20014;-48
2022/08/03 03:27:14;;;;;;;4.22;1.38;;;;;;;17.61;67.40;100111.47;7391718;19;20018;-49
2022/08/03 03:29:43;;;;;;;4.82;1.42;;;;;;;17.60;67.58;100107.09;7392292;19;20026;-48
2022/08/03 03:32:11;;;;;;;5.75;1.77;;;;;;;17.62;67.44;100122.25;7394486;19;20053;-49
2022/08/03 03:35:15;;;;;;;3.85;1.40;;;;;;;17.63;67.83;100123.06;7396416;19;20010;-48
2022/08/03 03:37:43;;;;;;;4.50;1.52;;;;;;;17.66;67.64;100133.41;7395589;19;20062;-49
2022/08/03 03:44:20;;;;;;;2.15;1.08;;;;;;;17.62;67.34;100133.47;7394517;19;20006;-49
2022/08/03 03:47:16;;;;;;;5.90;1.50;;;;;;;17.64;67.23;100130.25;7397850;19;19999;-48
2022/08/03 03:50:19;;;;;;;2.33;1.08;;;;;;;17.64;67.08;100147.84;7401830;19;20325;-49
2022/08/03 03:52:47;;;;;;;3.60;1.17;;;;;;;17.65;66.97;100137.44;7403942;19;20003;-53
2022/08/03 03:55:42;;;;;;;4.97;1.85;;;;;;;17.66;67.26;100127.81;7397815;19;20468;-49
2022/08/03 03:58:49;;;;;;;6.68;1.27;;;;;;;17.74;66.79;100143.38;7387722;19;20340;-49
2022/08/03 04:01:17;;;;;;;4.65;1.42;;;;;;;17.72;66.93;100150.59;7388761;19;20014;-49
2022/08/03 04:03:45;;;;;;;7.30;1.05;;;;;;;17.68;66.95;100149.84;7372142;19;20461;-49
2022/08/03 04:12:31;;;;;;;2.65;1.17;;;;;;;17.56;66.99;100151.88;7401297;19;20210;-48
2022/08/03 04:15:40;;;;;;;8.43;1.38;;;;;;;17.51;67.63;100160.66;7400066;19;20010;-52
2022/08/03 04:18:12;;;;;;;6.03;2.13;;;;;;;17.52;67.35;100155.88;7401001;19;20103;-48
2022/08/03 04:24:40;;;;;;;9.82;2.35;;;;;;;17.39;67.72;100163.94;7400453;19;20003;-50
2022/08/03 04:33:58;;;;;;;2.72;1.20;;;;;;;17.35;67.11;100157.53;7396750;19;20006;-50
2022/08/03 04:36:56;;;;;;;4.38;1.35;;;;;;;17.34;66.95;100171.94;7396293;19;20006;-48
2022/08/03 04:43:23;;;;;;;4.22;1.10;;;;;;;17.28;67.17;100174.34;7400451;19;20007;-53
2022/08/03 04:45:52;;;;;;;4.50;1.27;;;;;;;17.24;67.35;100190.31;7397008;19;20015;-50
2022/08/03 04:48:24;;;;;;;5.55;1.65;;;;;;;17.19;67.64;100168.38;7398159;19;20039;-49
2022/08/03 04:50:53;;;;;;;4.47;1.52;;;;;;;17.18;67.45;100175.19;7398095;19;20015;-51
2022/08/03 04:53:21;;;;;;;6.47;1.27;;;;;;;17.14;67.44;100174.38;7402274;19;20015;-52
2022/08/03 04:55:49;;;;;;;5.88;1.20;;;;;;;17.14;67.47;100173.56;7397664;19;20007;-57
2022/08/03 04:58:17;;;;;;;3.10;1.23;;;;;;;17.15;67.86;100178.78;7399785;19;20450;-56
2022/08/03 05:01:06;;;;;;;7.72;1.17;;;;;;;17.10;68.78;100179.19;7401972;19;20014;-47
2022/08/03 05:03:34;;;;;;;3.78;0.82;;;;;;;17.16;68.47;100177.56;7398505;19;20115;-53
2022/08/03 05:06:02;;;;;;;5.80;1.10;;;;;;;17.17;68.55;100187.56;7395082;19;20011;-51
2022/08/03 05:08:38;;;;;;;3.35;1.35;;;;;;;17.12;69.09;100192.75;7398264;19;20480;-49
2022/08/03 05:14:27;;;;;;;6.45;1.40;;;;;;;17.07;69.09;100195.97;7401847;19;20345;-49
2022/08/03 05:24:00;;;;;;;4.60;1.10;;;;;;;17.02;70.42;100205.56;7402331;19;20045;-49
2022/08/03 05:33:50;;;;;;;4.43;1.10;;;;;;;16.96;70.46;100216.38;7390812;19;20377;-53
2022/08/03 05:36:17;;;;;;;5.03;1.33;;;;;;;16.93;70.95;100219.16;7395603;19;20014;-49
2022/08/03 05:42:23;;;;;;;5.95;1.92;;;;;;;16.92;71.48;100223.13;7395590;19;20017;-50
2022/08/03 05:48:32;;;;;;;6.65;1.20;;;;;;;17.04;71.24;100233.94;7397119;19;20006;-48
2022/08/03 05:54:54;;;;;;;3.90;1.65;;;;;;;17.18;71.68;100231.13;7394308;19;20011;-50
2022/08/03 05:57:24;;;;;;;6.43;2.33;;;;;;;17.18;71.07;100239.53;7396715;19;20491;-50
2022/08/03 05:59:53;;;;;;;7.55;1.65;;;;;;;17.17;70.94;100237.91;7394930;19;20014;-48
2022/08/03 06:05:55;;;;;;;6.90;2.05;;;;;;;17.20;71.15;100234.31;7392367;19;20078;-51
2022/08/03 06:08:26;;;;;;;9.25;1.52;;;;;;;17.20;71.59;100239.09;7398764;19;20014;-50
2022/08/03 06:10:54;;;;;;;6.60;1.83;;;;;;;17.18;71.30;100242.31;7396502;19;20018;-53
2022/08/03 06:13:59;;;;;;;7.18;1.63;;;;;;;17.12;71.90;100243.91;7396751;19;20054;-48
2022/08/03 06:16:38;;;;;;;11.60;2.58;;;;;;;17.12;71.00;100232.72;7387526;19;20021;-51
2022/08/03 06:22:57;;;;;;;4.38;1.30;;;;;;;17.01;71.45;100231.94;7387594;19;20007;-53
2022/08/03 06:25:40;;;;;;;4.82;1.23;;;;;;;17.00;71.17;100241.50;7384293;19;20017;-54
2022/08/03 06:28:07;;;;;;;10.00;2.00;;;;;;;16.95;71.50;100233.53;7397172;19;20043;-48
2022/08/03 06:31:07;;;;;;;10.15;2.58;;;;;;;16.94;72.04;100237.53;7392618;19;20020;-50
2022/08/03 06:33:45;;;;;;;6.25;1.58;;;;;;;16.93;72.00;100247.13;7394565;19;20086;-48
2022/08/03 06:36:33;;;;;;;6.18;1.25;;;;;;;16.94;71.58;100254.31;7393941;19;20013;-47
2022/08/03 06:39:01;;;;;;;10.75;1.52;;;;;;;16.91;71.17;100249.53;7395748;19;20011;-49
2022/08/03 06:44:46;;;;;;;5.57;1.48;;;;;;;16.97;71.14;100253.53;7393764;19;20364;-49
2022/08/03 06:47:23;;;;;;;7.75;2.58;;;;;;;17.00;70.90;100252.69;7394768;19;20007;-49
2022/08/03 06:49:51;;;;;;;9.75;1.88;;;;;;;17.06;70.84;100256.69;7394515;19;20003;-52
2022/08/03 06:52:38;;;;;;;5.82;1.08;;;;;;;17.23;70.28;100260.69;7393847;19;20464;-50
2022/08/03 06:55:24;;;;;;;7.13;1.75;;;;;;;17.28;69.47;100249.09;7394432;19;20010;-51
2022/08/03 06:58:12;;;;;;;5.70;1.00;;;;;;;17.37;69.28;100250.25;7394746;19;20355;-49
2022/08/03 07:00:41;;;;;;;9.00;2.28;;;;;;;17.44;68.93;100243.84;7393730;19;20039;-55
2022/08/03 07:03:08;;;;;;;8.75;1.90;;;;;;;17.52;69.04;100242.63;7393154;19;20010;-49
2022/08/03 07:05:36;;;;;;;5.68;1.40;;;;;;;17.59;68.68;100237.84;7392127;19;20464;-49
2022/08/03 07:08:03;;;;;;;3.92;1.42;;;;;;;17.59;68.29;100240.66;7387051;19;20364;-53
2022/08/03 07:10:31;;;;;;;9.40;2.28;;;;;;;17.59;68.17;100246.25;7390973;19;20043;-51
2022/08/03 07:12:58;;;;;;;9.73;1.38;;;;;;;17.54;67.84;100243.84;7389632;19;20031;-50
2022/08/03 07:15:26;;;;;;;8.57;1.90;;;;;;;17.53;68.08;100236.66;7392811;19;20333;-50
2022/08/03 07:18:18;;;;;;;6.60;1.33;;;;;;;17.59;67.83;100223.84;7394357;19;20086;-49
2022/08/03 07:21:09;;;;;;;8.88;1.95;;;;;;;17.58;67.59;100227.03;7396399;19;20015;-49
2022/08/03 07:23:54;;;;;;;6.95;1.70;;;;;;;17.54;66.88;100229.06;7396828;19;20018;-48
2022/08/03 07:26:21;;;;;;;11.68;1.88;;;;;;;17.56;67.05;100227.44;7397936;19;20472;-49
2022/08/03 07:28:48;;;;;;;7.32;1.35;;;;;;;17.60;67.08;100233.06;7397468;19;20011;-49
2022/08/03 07:31:16;;;;;;;8.45;1.50;;;;;;;17.62;66.96;100237.03;7401530;19;20014;-48
2022/08/03 07:33:46;;;;;;;5.10;1.48;;;;;;;17.64;66.59;100234.63;7400690;19;20010;-48
2022/08/03 07:36:14;;;;;;;7.28;1.60;;;;;;;17.76;67.12;100243.78;7400925;19;20011;-51
2022/08/03 07:38:41;;;;;;;9.15;1.42;;;;;;;17.76;66.42;100238.19;7395980;19;20037;-51
2022/08/03 07:41:09;;;;;;;9.05;1.80;;;;;;;17.79;66.39;100248.59;7400206;19;20348;-48
2022/08/03 07:43:36;;;;;;;8.60;1.65;;;;;;;17.89;66.83;100242.94;7398783;19;20011;-52
2022/08/03 07:46:05;;;;;;;9.20;1.90;;;;;;;17.92;66.34;100246.94;7397314;19;20018;-53
2022/08/03 07:48:34;;;;;;;11.40;2.03;;;;;;;17.95;66.21;100251.72;7395619;19;20014;-48
2022/08/03 07:51:02;;;;;;;11.32;1.92;;;;;;;18.06;66.67;100255.25;7401075;19;20015;-48
2022/08/03 07:53:30;;;;;;;8.82;1.92;;;;;;;18.22;66.33;100249.97;7399445;19;20010;-50
2022/08/03 07:56:04;;;;;;;10.95;2.15;;;;;;;18.38;66.42;100278.28;7400538;19;20010;-54
2022/08/03 07:58:37;;;;;;;6.95;1.25;;;;;;;18.51;66.28;100256.22;7397704;19;20015;-54
2022/08/03 08:01:06;;;;;;;6.32;1.95;;;;;;;18.62;65.12;100262.56;7400381;19;20010;-48
2022/08/03 08:03:35;;;;;;;9.98;1.33;;;;;;;18.77;65.19;100281.66;7400393;19;20039;-51
2022/08/03 08:06:31;;;;;;;10.45;2.10;;;;;;;19.05;65.31;100279.84;7396879;19;20027;-52
2022/08/03 08:09:25;;;;;;;8.52;1.23;;;;;;;19.51;62.88;100276.66;7399763;19;20010;-47
2022/08/03 08:11:55;;;;;;;7.07;1.98;;;;;;;19.96;65.33;100278.94;7401443;19;20003;-52
2022/08/03 08:14:22;;;;;;;6.05;1.30;;;;;;;20.25;64.05;100284.22;7396771;19;20354;-51
2022/08/03 08:16:50;;;;;;;5.07;1.30;;;;;;;20.53;62.73;100289.47;7397888;19;20014;-49
2022/08/03 08:19:18;;;;;;;8.93;1.60;;;;;;;20.94;61.88;100289.25;7401075;19;20021;-49
2022/08/03 08:22:20;;;;;;;2.17;0.85;;;;;;;21.38;56.96;100296.56;7402046;19;20039;-49
2022/08/03 08:25:59;;;;;;;4.45;1.13;;;;;;;22.09;55.89;100287.56;7398863;19;20495;-49
2022/08/03 08:28:26;;;;;;;11.27;2.47;;;;;;;22.70;56.97;100282.19;7397257;19;20011;-49
2022/08/03 08:31:20;;;;;;;4.28;1.15;;;;;;;23.14;54.69;100289.97;7400803;19;20345;-59
2022/08/03 08:33:49;;;;;;;5.25;1.38;;;;;;;23.48;53.19;100276.19;7396754;19;20377;-49
2022/08/03 08:36:33;;;;;;;5.93;1.35;;;;;;;24.05;52.20;100286.75;7401948;19;20021;-48
2022/08/03 08:39:41;;;;;;;6.13;1.45;;;;;;;24.44;49.54;100285.59;7396293;19;20017;-48
2022/08/03 08:42:09;;;;;;;3.72;1.02;;;;;;;24.89;50.05;100285.41;7400510;19;20006;-52
2022/08/03 08:44:55;;;;;;;4.65;1.23;;;;;;;25.14;46.65;100290.28;7398447;19;20014;-52
2022/08/03 08:47:24;;;;;;;6.45;1.38;;;;;;;25.41;47.76;100291.38;7395097;19;20010;-53
2022/08/03 08:49:53;;;;;;;4.38;1.33;;;;;;;25.53;47.19;100295.41;7397396;19;20022;-48
2022/08/03 08:52:42;;;;;;;5.50;0.90;;;;;;;25.71;45.75;100287.06;7391690;19;20483;-51
2022/08/03 08:55:13;;;;;;;6.10;1.05;;;;;;;25.74;45.03;100297.50;7394575;19;20019;-48
2022/08/03 08:57:47;;;;;;;4.30;0.98;;;;;;;25.65;44.65;100297.44;7394698;19;20042;-49
2022/08/03 09:00:16;;;;;;;4.43;1.60;;;;;;;25.83;44.96;100289.09;7392099;19;20014;-51
2022/08/03 09:02:45;;;;;;;8.15;1.77;;;;;;;25.78;45.04;100286.84;7394207;19;20022;-49
2022/08/03 09:05:15;;;;;;;5.43;0.98;;;;;;;25.68;44.15;100299.34;7396897;19;20029;-51
2022/08/03 09:07:44;;;;;;;3.65;1.00;;;;;;;25.74;44.73;100291.84;7392627;19;20014;-49
2022/08/03 09:10:17;;;;;;;6.00;1.20;;;;;;;25.69;44.59;100289.59;7395534;19;20015;-50
2022/08/03 09:12:50;;;;;;;3.25;0.57;;;;;;;25.45;44.40;100294.06;7396844;19;20007;-50
2022/08/03 09:15:26;;;;;;;6.22;1.50;;;;;;;25.27;44.39;100297.50;7397374;19;20010;-54
2022/08/03 09:18:02;;;;;;;4.55;0.82;;;;;;;25.10;44.08;100303.78;7394840;19;20010;-53
2022/08/03 09:20:32;;;;;;;4.72;0.73;;;;;;;24.53;45.09;100299.88;7394545;19;20014;-48
2022/08/03 09:23:07;;;;;;;7.80;1.10;;;;;;;23.73;46.07;100300.19;7396222;19;20031;-49
2022/08/03 09:25:57;;;;;;;4.32;1.30;;;;;;;22.83;48.05;100325.44;7396464;19;20006;-49
2022/08/03 09:28:33;;;;;;;3.90;0.88;;;;;;;22.05;50.15;100313.03;7396747;19;20018;-51
2022/08/03 09:31:38;;;;;;;2.40;0.80;;;;;;;21.62;51.35;100315.03;7395566;19;20006;-48
2022/08/03 09:34:30;;;;;;;2.15;0.85;;;;;;;21.89;50.79;100317.78;7395344;19;20086;-50
2022/08/03 09:36:57;;;;;;;2.90;0.85;;;;;;;22.30;51.05;100321.75;7398030;19;20043;-48
2022/08/03 09:39:30;;;;;;;2.90;0.65;;;;;;;22.89;50.23;100321.66;7391197;19;20047;-51
2022/08/03 09:42:18;;;;;;;3.88;0.70;;;;;;;22.73;49.64;100320.84;7394527;19;20015;-49
2022/08/03 09:45:25;;;;;;;5.28;0.90;;;;;;;22.33;50.63;100308.81;7392496;19;20029;-47
2022/08/03 09:47:52;;;;;;;4.03;0.88;;;;;;;22.22;50.89;100325.16;7396013;19;20018;-49
2022/08/03 09:50:20;;;;;;;3.63;0.95;;;;;;;22.01;51.46;100326.38;7395123;19;20010;-48
2022/08/03 09:52:50;;;;;;;3.13;0.50;;;;;;;21.81;51.91;100311.47;7393306;19;20011;-49
2022/08/03 09:55:19;;;;;;;3.88;0.70;;;;;;;22.06;51.60;100322.25;7396514;19;20006;-58
2022/08/03 09:58:10;;;;;;;5.47;1.00;;;;;;;22.24;51.93;100326.31;7393751;19;20531;-49
2022/08/03 10:01:02;;;;;;;1.95;0.60;;;;;;;22.23;51.94;100313.44;7397502;19;20002;-51
2022/08/03 10:04:01;;;;;;;3.45;0.73;;;;;;;22.30;51.64;100315.31;7393601;19;20100;-48
2022/08/03 10:06:31;;;;;;;6.35;1.25;;;;;;;22.40;52.22;100303.00;7393698;19;20017;-48
2022/08/03 10:09:10;;;;;;;3.50;0.57;;;;;;;22.43;52.09;100302.94;7394855;19;20117;-49
2022/08/03 10:11:39;;;;;;;1.85;0.68;;;;;;;22.79;52.13;100307.81;7395050;19;20039;-49
2022/08/03 10:14:31;;;;;;;2.10;0.93;;;;;;;23.39;51.58;100306.34;7393395;19;20002;-49
2022/08/03 10:16:59;;;;;;;1.45;0.47;;;;;;;23.91;50.38;100304.09;7394105;19;20015;-47
2022/08/03 10:19:26;;;;;;;5.72;1.25;;;;;;;24.31;49.94;100304.59;7390548;19;20370;-49
2022/08/03 10:21:56;;;;;;;2.53;0.80;;;;;;;24.65;49.03;100313.25;7395387;19;20011;-50
2022/08/03 10:24:27;;;;;;;4.22;0.68;;;;;;;25.04;47.74;100314.09;7395010;19;20492;-52
2022/08/03 10:27:06;;;;;;;2.42;0.65;;;;;;;25.09;47.06;100313.50;7392410;19;20376;-51
2022/08/03 10:29:37;;;;;;;1.50;0.47;;;;;;;24.67;46.92;100310.78;7393752;19;20014;-53
2022/08/03 10:32:17;;;;;;;2.80;0.60;;;;;;;24.33;47.45;100301.31;7395465;19;20010;-48
2022/08/03 10:34:49;;;;;;;5.10;0.85;;;;;;;24.01;48.26;100310.72;7393434;19;20358;-53
2022/08/03 10:37:31;;;;;;;4.43;0.75;;;;;;;23.63;48.07;100317.00;7392949;19;20100;-48
2022/08/03 10:40:01;;;;;;;8.57;1.13;;;;;;;23.13;48.89;100304.56;7394085;19;20011;-48
2022/08/03 10:42:30;;;;;;;3.42;1.15;;;;;;;23.30;49.04;100306.16;7391072;19;20386;-49
2022/08/03 10:45:03;;;;;;;1.58;0.52;;;;;;;23.50;48.76;100313.31;7392464;19;20369;-50
2022/08/03 10:47:33;;;;;;;2.35;0.47;;;;;;;23.74;48.48;100310.25;7392461;19;20015;-50
2022/08/03 10:50:01;;;;;;;2.03;0.57;;;;;;;23.64;48.77;100314.97;7395146;19;20330;-49
2022/08/03 10:52:29;;;;;;;3.08;0.95;;;;;;;23.25;49.00;100312.31;7389015;19;20015;-49
2022/08/03 10:57:52;;;;;;;3.25;0.77;;;;;;;23.54;49.53;100314.00;7393275;19;20367;-49
2022/08/03 11:00:28;;;;;;;6.35;0.63;;;;;;;23.68;49.57;100310.00;7391420;19;20395;-58
2022/08/03 11:03:16;;;;;;;3.95;0.50;;;;;;;23.73;48.67;100314.31;7394694;19;20018;-51
2022/08/03 11:05:47;;;;;;;1.17;0.52;;;;;;;23.83;49.31;100324.56;7391005;19;20956;-51
2022/08/03 11:08:30;;;;;;;1.50;0.32;;;;;;;23.67;48.69;100310.47;7393365;19;20015;-49
2022/08/03 11:11:27;;;;;;;2.15;0.70;;;;;;;23.78;48.59;100322.25;7391410;19;20017;-48
2022/08/03 11:14:17;;;;;;;0.68;0.35;;;;;;;23.94;48.89;100313.72;7392788;19;20006;-49
2022/08/03 11:17:06;;;;;;;4.05;0.68;;;;;;;23.79;47.77;100309.72;7388396;19;20016;-51
2022/08/03 11:19:48;;;;;;;1.30;0.43;;;;;;;23.63;48.57;100307.72;7388615;19;20017;-48
2022/08/03 11:22:44;;;;;;;2.88;0.82;;;;;;;23.53;49.16;100312.44;7395125;19;20010;-49
2022/08/03 11:25:14;;;;;;;1.05;0.70;;;;;;;23.30;49.63;100315.41;7391110;19;20039;-48
2022/08/03 11:28:27;;;;;;;5.13;0.65;;;;;;;23.31;50.13;100311.34;7393272;19;20022;-53
2022/08/03 11:30:55;;;;;;;1.83;0.40;;;;;;;23.32;49.75;100309.31;7392734;19;20015;-48
2022/08/03 11:33:30;;;;;;;1.55;0.20;;;;;;;23.28;49.93;100306.59;7396235;19;20460;-53
2022/08/03 11:36:01;;;;;;;1.98;0.30;;;;;;;23.13;50.03;100319.47;7390760;19;20368;-49
2022/08/03 11:38:29;;;;;;;1.45;0.20;;;;;;;23.10;50.15;100337.31;7395615;19;20353;-45
2022/08/03 11:41:01;;;;;;;0.90;0.40;;;;;;;23.00;50.43;100318.59;7391445;19;20010;-51
2022/08/03 11:43:28;;;;;;;0.98;0.45;;;;;;;22.91;51.08;100326.88;7394619;19;20003;-49
2022/08/03 11:46:02;;;;;;;0.95;0.17;;;;;;;22.70;51.31;100313.25;7391552;19;20486;-50
2022/08/03 11:48:33;;;;;;;5.20;0.40;;;;;;;22.60;51.42;100323.53;7393723;19;20011;-48
2022/08/03 11:51:02;;;;;;;1.13;0.30;;;;;;;22.63;51.57;100321.88;7391823;19;20394;-54
2022/08/03 11:53:30;;;;;;;2.25;0.40;;;;;;;22.71;52.07;100323.31;7392567;19;20011;-52
2022/08/03 11:56:00;;;;;;;2.42;0.35;;;;;;;22.66;52.17;100321.00;7391818;19;20010;-52
2022/08/03 11:58:28;;;;;;;2.88;0.43;;;;;;;22.61;52.53;100327.91;7390466;19;20014;-54
2022/08/03 12:02:00;;;;;;;1.02;0.30;;;;;;;22.57;53.26;100332.06;7393223;19;20014;-51
2022/08/03 12:04:29;;;;;;;0.85;0.20;;;;;;;22.62;53.42;100331.53;7390795;19;20018;-49
2022/08/03 12:06:58;;;;;;;0.75;0.40;;;;;;;22.63;53.39;100325.50;7393149;19;20480;-54
2022/08/03 12:09:29;;;;;;;1.77;0.90;;;;;;;22.61;53.64;100329.97;7400325;19;20039;-54
2022/08/03 12:11:59;;;;;;;0.98;0.28;;;;;;;22.71;53.21;100331.78;7399671;19;20017;-52
2022/08/03 12:14:29;;;;;;;1.35;0.43;;;;;;;22.85;53.48;100359.66;7394147;19;20019;-53
2022/08/03 12:17:16;;;;;;;0.57;0.25;;;;;;;22.90;52.99;100359.94;7400577;19;20011;-50
2022/08/03 12:19:44;;;;;;;1.05;0.47;;;;;;;23.02;52.40;100383.88;7395572;19;20014;-54
2022/08/03 12:22:15;;;;;;;0.57;0.20;;;;;;;23.06;52.43;100375.34;7399718;19;20007;-52
2022/08/03 12:24:50;;;;;;;0.95;0.35;;;;;;;23.10;51.80;100381.69;7399424;19;20010;-51
2022/08/03 12:27:28;;;;;;;2.90;0.80;;;;;;;22.98;51.88;100383.19;7400275;19;20007;-54
2022/08/03 12:29:58;;;;;;;0.70;0.40;;;;;;;23.00;52.19;100386.34;7397472;19;20018;-54
2022/08/03 12:32:27;;;;;;;0.68;0.50;;;;;;;22.97;52.41;100387.22;7398666;19;20002;-52
2022/08/03 12:34:59;;;;;;;0.70;0.22;;;;;;;23.07;52.10;100391.84;7398174;19;20384;-54
2022/08/03 12:37:28;;;;;;;1.38;0.20;;;;;;;23.19;52.66;100394.00;7399699;19;20015;-50
2022/08/03 12:40:00;;;;;;;1.33;0.32;;;;;;;23.20;52.28;100395.56;7398550;19;20478;-54
2022/08/03 12:42:38;;;;;;;0.35;0.28;;;;;;;23.30;52.29;100390.91;7397083;19;20007;-54
2022/08/03 12:45:38;;;;;;;0.35;0.20;;;;;;;23.45;51.81;100395.00;7401204;19;20007;-54
2022/08/03 12:48:11;;;;;;;1.08;0.30;;;;;;;23.45;52.05;100395.78;7394472;19;20007;-49
2022/08/03 12:50:40;;;;;;;0.45;0.30;;;;;;;23.49;51.92;100395.69;7397276;19;20011;-47
2022/08/03 12:53:08;;;;;;;1.00;0.30;;;;;;;23.54;52.48;100395.94;7397875;19;20082;-47
2022/08/03 12:55:38;;;;;;;1.48;0.30;;;;;;;23.52;52.52;100395.59;7394921;19;20383;-51
2022/08/03 12:58:34;;;;;;;0.82;0.40;;;;;;;23.58;52.21;100401.53;7395178;19;20015;-50
2022/08/03 13:01:07;;;;;;;2.35;0.40;;;;;;;23.73;52.31;100399.13;7397201;19;20043;-50
2022/08/03 13:03:47;;;;;;;1.73;0.30;;;;;;;23.72;52.07;100408.84;7395103;19;20372;-51
2022/08/03 13:06:19;;;;;;;0.63;0.20;;;;;;;23.52;51.83;100409.75;7398892;19;20019;-49
2022/08/03 13:08:48;;;;;;;0.77;0.30;;;;;;;23.27;52.04;100420.81;7397752;19;20015;-55
2022/08/03 13:11:22;;;;;;;1.38;0.20;;;;;;;22.98;52.12;100434.00;7400391;19;20026;-49
2022/08/03 13:14:10;;;;;;;0.10;0.10;;;;;;;22.65;52.42;100440.75;7395448;19;20047;-55
2022/08/03 13:16:47;;;;;;;0.70;0.20;;;;;;;22.47;52.26;100434.66;7398749;19;20010;-51
2022/08/03 13:19:15;;;;;;;1.35;0.17;;;;;;;22.34;52.28;100446.59;7398041;19;20010;-49
2022/08/03 13:21:43;;;;;;;1.27;0.63;;;;;;;22.23;52.64;100446.00;7391757;19;20669;-49
2022/08/03 13:24:31;;;;;;;1.17;0.20;;;;;;;22.18;52.99;100443.69;7395498;19;20010;-50
2022/08/03 13:26:59;;;;;;;1.15;0.30;;;;;;;22.20;53.27;100446.06;7399510;19;20006;-48
2022/08/03 13:29:47;;;;;;;2.60;0.50;;;;;;;22.23;53.77;100440.34;7396942;19;20002;-51
2022/08/03 13:32:20;;;;;;;0.90;0.45;;;;;;;22.23;53.63;100443.19;7394317;19;20016;-53
2022/08/03 13:34:47;;;;;;;0.47;0.17;;;;;;;22.11;54.04;100449.44;7396937;19;20007;-54
2022/08/03 13:37:15;;;;;;;2.00;0.30;;;;;;;22.05;54.06;100445.53;7393505;19;20021;-53
2022/08/03 13:39:42;;;;;;;1.02;0.47;;;;;;;21.94;54.33;100444.94;7395333;19;20011;-49
2022/08/03 13:42:30;;;;;;;1.75;0.20;;;;;;;21.80;54.29;100442.31;7392727;19;20074;-49
2022/08/03 13:44:57;;;;;;;;;;;;;;;21.86;55.10;100449.09;7399129;19;20018;-50
2022/08/03 13:48:04;;;;;;;1.02;0.20;;;;;;;22.15;54.43;100450.19;7394305;19;20018;-48
2022/08/03 13:50:32;;;;;;;1.05;0.43;;;;;;;22.38;53.62;100446.50;7393781;19;20007;-53
2022/08/03 13:53:08;;;;;;;0.75;0.30;;;;;;;22.51;52.85;100443.81;7397038;19;20035;-53
2022/08/03 13:59:00;;;;;;;0.68;0.20;;;;;;;22.94;51.68;100438.91;7390886;19;20027;-49
2022/08/03 14:01:28;;;;;;;1.00;0.20;;;;;;;23.49;50.90;100430.41;7394052;19;20476;-52
2022/08/03 14:04:15;;;;;;;1.17;0.30;;;;;;;24.05;49.54;100427.34;7394631;19;20462;-51
2022/08/03 14:06:50;;;;;;;0.45;0.30;;;;;;;24.45;48.09;100423.03;7393450;19;20018;-48
2022/08/03 14:09:17;;;;;;;0.82;0.10;;;;;;;24.66;47.54;100430.91;7396621;19;20014;-49
2022/08/03 14:11:45;;;;;;;0.50;0.20;;;;;;;24.88;46.98;100416.94;7395290;19;20021;-50
2022/08/03 14:14:52;;;;;;;2.72;0.40;;;;;;;25.27;46.73;100422.19;7391654;19;20029;-48
2022/08/03 14:17:46;;;;;;;1.38;0.25;;;;;;;25.49;45.88;100430.84;7395470;19;20032;-50
2022/08/03 14:20:16;;;;;;;1.30;0.30;;;;;;;25.44;45.52;100417.19;7393328;19;20010;-48